createdAt,value
2019-05-12T00:00:08.054Z,40.63
2019-05-12T00:02:39.830Z,45.13
2019-05-12T00:05:12.608Z,43.07
2019-05-12T00:07:43.909Z,42.53
2019-05-12T00:10:17.578Z,42.53
2019-05-12T00:12:48.666Z,45.00
2019-05-12T00:15:20.077Z,42.50
2019-05-12T00:17:51.373Z,42.13
2019-05-12T00:20:22.808Z,44.10
2019-05-12T00:22:57.940Z,47.23
2019-05-12T00:25:29.352Z,50.50
2019-05-12T00:28:00.697Z,47.43
2019-05-12T00:30:34.091Z,47.27
2019-05-12T00:33:05.492Z,41.10
2019-05-12T00:35:38.037Z,48.00
2019-05-12T00:38:09.660Z,46.10
2019-05-12T00:40:41.060Z,41.57
2019-05-12T00:43:12.245Z,50.57
2019-05-12T00:45:43.978Z,48.23
2019-05-12T00:48:17.655Z,48.90
2019-05-12T00:50:48.725Z,46.90
2019-05-12T00:53:20.696Z,43.90
2019-05-12T00:55:52.081Z,51.63
2019-05-12T00:58:23.382Z,44.40
2019-05-12T01:00:54.766Z,47.83
2019-05-12T01:03:27.931Z,46.53
2019-05-12T01:05:59.155Z,52.10
2019-05-12T01:08:30.580Z,46.07
2019-05-12T01:11:02.160Z,44.63
2019-05-12T01:13:33.657Z,43.17
2019-05-12T01:16:05.129Z,40.80
2019-05-12T01:18:38.426Z,41.50
2019-05-12T01:21:09.637Z,38.90
2019-05-12T01:23:53.643Z,38.67
2019-05-12T01:26:14.499Z,38.60
2019-05-12T01:28:45.974Z,37.40
2019-05-12T01:31:18.974Z,40.60
2019-05-12T01:33:50.245Z,36.30
2019-05-12T01:36:21.585Z,32.47
2019-05-12T01:38:52.799Z,32.43
2019-05-12T01:41:24.286Z,35.90
2019-05-12T01:43:58.292Z,31.97
2019-05-12T01:46:29.455Z,32.67
2019-05-12T01:49:00.727Z,34.37
2019-05-12T01:51:31.984Z,33.47
2019-05-12T01:54:13.618Z,31.27
2019-05-12T01:56:38.352Z,30.47
2019-05-12T01:59:09.761Z,34.70
2019-05-12T02:01:41.057Z,30.23
2019-05-12T02:04:12.221Z,27.37
2019-05-12T02:06:43.510Z,32.30
2019-05-12T02:09:18.730Z,27.63
2019-05-12T02:11:50.057Z,31.23
2019-05-12T02:14:21.379Z,30.67
2019-05-12T02:16:53.085Z,27.23
2019-05-12T02:19:24.751Z,26.10
2019-05-12T02:21:57.899Z,27.23
2019-05-12T02:24:30.546Z,25.57
2019-05-12T02:27:02.265Z,28.63
2019-05-12T02:29:33.429Z,31.03
2019-05-12T02:32:04.629Z,30.47
2019-05-12T02:34:36.031Z,27.43
2019-05-12T02:37:07.284Z,30.37
2019-05-12T02:39:38.518Z,25.97
2019-05-12T02:42:09.826Z,26.80
2019-05-12T02:44:43.752Z,25.73
2019-05-12T02:47:16.191Z,25.73
2019-05-12T02:49:47.458Z,25.43
2019-05-12T02:52:18.976Z,26.40
2019-05-12T02:54:56.938Z,30.47
2019-05-12T02:57:25.491Z,27.83
2019-05-12T02:59:57.267Z,30.07
2019-05-12T03:02:30.046Z,29.90
2019-05-12T03:05:01.562Z,30.33
2019-05-12T03:07:34.651Z,27.30
2019-05-12T03:10:07.884Z,29.73
2019-05-12T03:12:39.458Z,29.27
2019-05-12T03:15:14.834Z,30.53
2019-05-12T03:17:44.435Z,26.07
2019-05-12T03:20:16.243Z,28.13
2019-05-12T03:22:47.638Z,30.67
2019-05-12T03:25:24.508Z,30.87
2019-05-12T03:27:54.549Z,31.70
2019-05-12T03:30:29.232Z,36.13
2019-05-12T03:32:58.781Z,32.00
2019-05-12T03:35:35.017Z,34.10
2019-05-12T03:38:04.500Z,35.83
2019-05-12T03:40:38.562Z,35.43
2019-05-12T03:43:09.669Z,29.87
2019-05-12T03:45:40.960Z,33.07
2019-05-12T03:48:14.869Z,29.83
2019-05-12T03:50:46.300Z,33.93
2019-05-12T03:53:17.882Z,31.43
2019-05-12T03:55:49.369Z,31.67
2019-05-12T03:58:20.836Z,31.67
2019-05-12T04:00:55.205Z,28.60
2019-05-12T04:03:25.594Z,35.43
2019-05-12T04:05:56.805Z,29.33
2019-05-12T04:08:28.073Z,27.60
2019-05-12T04:10:59.346Z,27.00
2019-05-12T04:13:30.634Z,29.47
2019-05-12T04:16:04.815Z,27.80
2019-05-12T04:18:35.170Z,28.07
2019-05-12T04:21:06.462Z,27.07
2019-05-12T04:23:37.971Z,23.53
2019-05-12T04:26:13.352Z,24.53
2019-05-12T04:28:45.488Z,32.07
2019-05-12T04:31:15.712Z,23.80
2019-05-12T04:33:47.511Z,24.67
2019-05-12T04:36:18.772Z,25.97
2019-05-12T04:38:50.190Z,22.73
2019-05-12T04:41:25.652Z,23.97
2019-05-12T04:43:55.207Z,25.37
2019-05-12T04:46:26.678Z,21.23
2019-05-12T04:48:58.157Z,25.63
2019-05-12T04:51:29.415Z,24.23
2019-05-12T04:54:00.915Z,22.93
2019-05-12T04:56:35.775Z,22.40
2019-05-12T04:59:06.333Z,21.07
2019-05-12T05:01:37.962Z,23.13
2019-05-12T05:04:10.154Z,23.00
2019-05-12T05:06:44.595Z,21.37
2019-05-12T05:09:15.077Z,22.37
2019-05-12T05:11:46.333Z,29.23
2019-05-12T05:14:18.167Z,24.07
2019-05-12T05:16:49.591Z,19.23
2019-05-12T05:19:21.085Z,19.97
2019-05-12T05:21:54.170Z,22.53
2019-05-12T05:24:25.758Z,21.63
2019-05-12T05:26:57.096Z,23.77
2019-05-12T05:29:28.640Z,23.03
2019-05-12T05:32:00.216Z,18.97
2019-05-12T05:34:31.534Z,18.47
2019-05-12T05:37:05.189Z,19.90
2019-05-12T05:39:48.050Z,19.57
2019-05-12T05:42:10.169Z,19.67
2019-05-12T05:44:43.376Z,22.80
2019-05-12T05:47:14.653Z,20.47
2019-05-12T05:49:45.984Z,18.33
2019-05-12T05:52:17.398Z,19.60
2019-05-12T05:54:48.863Z,16.83
2019-05-12T05:57:27.769Z,21.67
2019-05-12T05:59:55.233Z,18.33
2019-05-12T06:02:31.858Z,20.00
2019-05-12T06:05:00.681Z,19.43
2019-05-12T06:07:37.685Z,18.27
2019-05-12T06:10:06.356Z,17.40
2019-05-12T06:12:40.334Z,17.67
2019-05-12T06:15:13.408Z,18.20
2019-05-12T06:17:44.685Z,17.07
2019-05-12T06:20:16.440Z,17.50
2019-05-12T06:22:48.727Z,15.67
2019-05-12T06:25:21.329Z,20.13
2019-05-12T06:28:00.192Z,17.30
2019-05-12T06:30:26.409Z,19.70
2019-05-12T06:32:57.815Z,14.37
2019-05-12T06:35:31.011Z,16.07
2019-05-12T06:38:05.088Z,16.57
2019-05-12T06:40:40.943Z,16.23
2019-05-12T06:43:10.394Z,15.87
2019-05-12T06:45:45.599Z,17.07
2019-05-12T06:48:19.429Z,13.27
2019-05-12T06:50:48.987Z,13.80
2019-05-12T06:53:29.029Z,12.73
2019-05-12T06:55:54.082Z,15.97
2019-05-12T06:58:29.596Z,14.93
2019-05-12T07:01:02.389Z,15.27
2019-05-12T07:03:34.875Z,13.47
2019-05-12T07:06:09.322Z,14.50
2019-05-12T07:08:38.696Z,15.83
2019-05-12T07:11:10.249Z,13.30
2019-05-12T07:13:43.513Z,14.30
2019-05-12T07:16:22.022Z,11.17
2019-05-12T07:18:49.300Z,10.50
2019-05-12T07:21:24.186Z,10.57
2019-05-12T07:23:54.007Z,11.07
2019-05-12T07:26:25.240Z,13.23
2019-05-12T07:28:56.895Z,10.30
2019-05-12T07:31:28.369Z,11.43
2019-05-12T07:33:59.666Z,15.10
2019-05-12T07:36:33.259Z,11.23
2019-05-12T07:39:08.409Z,10.30
2019-05-12T07:42:03.433Z,10.40
2019-05-12T07:44:40.100Z,8.67
2019-05-12T07:47:08.305Z,9.27
2019-05-12T07:49:39.750Z,9.73
2019-05-12T07:52:13.668Z,10.10
2019-05-12T07:54:45.071Z,11.57
2019-05-12T07:57:17.505Z,9.40
2019-05-12T07:59:49.258Z,10.67
2019-05-12T08:02:25.555Z,9.00
2019-05-12T08:04:54.229Z,8.13
2019-05-12T08:07:29.868Z,8.30
2019-05-12T08:09:59.401Z,11.27
2019-05-12T08:12:30.986Z,8.70
2019-05-12T08:15:09.306Z,7.97
2019-05-12T08:17:38.253Z,7.23
2019-05-12T08:20:10.020Z,10.03
2019-05-12T08:22:43.861Z,6.70
2019-05-12T08:25:18.774Z,8.80
2019-05-12T08:27:51.983Z,7.37
2019-05-12T08:30:40.453Z,7.03
2019-05-12T08:33:09.882Z,7.57
2019-05-12T08:35:43.822Z,9.47
2019-05-12T08:38:15.266Z,6.63
2019-05-12T08:40:50.902Z,5.83
2019-05-12T08:43:23.862Z,4.87
2019-05-12T08:45:54.518Z,8.27
2019-05-12T08:48:27.109Z,6.20
2019-05-12T08:50:58.594Z,4.97
2019-05-12T08:53:30.007Z,5.33
2019-05-12T08:56:06.636Z,5.40
2019-05-12T08:58:47.345Z,7.70
2019-05-12T09:01:08.038Z,5.10
2019-05-12T09:03:39.582Z,6.50
2019-05-12T09:06:17.893Z,5.63
2019-05-12T09:08:49.208Z,4.50
2019-05-12T09:11:18.701Z,5.07
2019-05-12T09:13:54.343Z,3.60
2019-05-12T09:16:24.452Z,5.23
2019-05-12T09:18:55.963Z,3.57
2019-05-12T09:21:31.720Z,4.17
2019-05-12T09:24:00.635Z,4.73
2019-05-12T09:26:34.448Z,4.07
2019-05-12T09:29:07.536Z,5.30
2019-05-12T09:31:39.055Z,4.77
2019-05-12T09:34:16.238Z,3.90
2019-05-12T09:36:46.133Z,4.97
2019-05-12T09:39:18.283Z,6.60
2019-05-12T09:41:52.600Z,3.63
2019-05-12T09:44:26.439Z,4.23
2019-05-12T09:46:56.152Z,10.53
2019-05-12T09:49:31.443Z,4.27
2019-05-12T09:52:03.543Z,4.40
2019-05-12T09:54:40.666Z,3.53
2019-05-12T09:57:08.025Z,3.53
2019-05-12T09:59:39.602Z,3.73
2019-05-12T10:02:16.487Z,4.57
2019-05-12T10:04:44.912Z,4.17
2019-05-12T10:07:16.302Z,5.50
2019-05-12T10:09:49.229Z,4.13
2019-05-12T10:12:21.818Z,3.77
2019-05-12T10:14:53.578Z,4.97
2019-05-12T10:17:26.282Z,3.00
2019-05-12T10:19:58.417Z,5.50
2019-05-12T10:22:40.131Z,6.73
2019-05-12T10:25:10.486Z,6.20
2019-05-12T10:27:44.098Z,4.20
2019-05-12T10:30:17.258Z,4.67
2019-05-12T10:32:49.023Z,3.93
2019-05-12T10:35:21.854Z,4.20
2019-05-12T10:37:53.809Z,4.33
2019-05-12T10:40:25.373Z,3.87
2019-05-12T10:42:57.333Z,2.37
2019-05-12T10:45:30.738Z,3.13
2019-05-12T10:48:05.426Z,4.37
2019-05-12T10:50:37.124Z,3.10
2019-05-12T10:53:09.788Z,2.50
2019-05-12T10:55:43.938Z,4.07
2019-05-12T10:58:15.466Z,3.47
2019-05-12T11:00:46.922Z,4.93
2019-05-12T11:03:18.322Z,4.77
2019-05-12T11:05:56.616Z,3.97
2019-05-12T11:08:24.715Z,2.83
2019-05-12T11:11:00.917Z,3.53
2019-05-12T11:13:29.614Z,3.17
2019-05-12T11:16:00.827Z,3.57
2019-05-12T11:18:34.082Z,3.67
2019-05-12T11:21:05.779Z,5.13
2019-05-12T11:23:37.322Z,3.90
2019-05-12T11:26:08.983Z,4.07
2019-05-12T11:28:40.747Z,3.27
2019-05-12T11:31:13.625Z,4.57
2019-05-12T11:33:45.269Z,2.83
2019-05-12T11:36:16.937Z,2.80
2019-05-12T11:38:48.284Z,2.93
2019-05-12T11:41:20.378Z,2.70
2019-05-12T11:43:52.452Z,4.20
2019-05-12T11:46:24.047Z,1.97
2019-05-12T11:48:55.686Z,2.83
2019-05-12T11:51:30.478Z,2.70
2019-05-12T11:54:03.456Z,3.93
2019-05-12T11:56:34.000Z,5.63
2019-05-12T11:59:05.712Z,2.50
2019-05-12T12:01:39.670Z,2.27
2019-05-12T12:04:10.591Z,2.93
2019-05-12T12:06:43.869Z,2.50
2019-05-12T12:09:18.831Z,3.63
2019-05-12T12:11:54.693Z,1.77
2019-05-12T12:14:23.807Z,2.60
2019-05-12T12:16:55.708Z,4.67
2019-05-12T12:19:34.940Z,2.37
2019-05-12T12:22:01.425Z,4.53
2019-05-12T12:24:33.618Z,4.00
2019-05-12T12:27:05.159Z,3.37
2019-05-12T12:29:36.677Z,3.07
2019-05-12T12:32:09.783Z,3.30
2019-05-12T12:34:43.919Z,3.07
2019-05-12T12:37:19.002Z,2.57
2019-05-12T12:39:48.218Z,3.17
2019-05-12T12:45:30.311Z,1.95
2019-05-12T12:48:00.523Z,5.30
2019-05-12T12:50:34.255Z,3.23
2019-05-12T12:53:06.306Z,2.50
2019-05-12T12:55:43.243Z,1.90
2019-05-12T12:58:13.948Z,1.60
2019-05-12T13:00:48.056Z,3.50
2019-05-12T13:03:19.693Z,1.63
2019-05-12T13:05:51.066Z,4.47
2019-05-12T13:08:24.604Z,4.80
2019-05-12T13:10:56.911Z,8.23
2019-05-12T13:13:28.241Z,5.70
2019-05-12T13:15:59.717Z,3.23
2019-05-12T13:18:33.921Z,3.30
2019-05-12T13:21:05.026Z,4.67
2019-05-12T13:23:40.930Z,6.33
2019-05-12T13:26:13.311Z,4.10
2019-05-12T13:28:45.465Z,2.90
2019-05-12T13:31:17.755Z,4.83
2019-05-12T13:33:49.427Z,4.67
2019-05-12T13:36:24.126Z,5.13
2019-05-12T13:38:55.657Z,3.80
2019-05-12T13:41:27.458Z,5.93
2019-05-12T13:44:00.004Z,4.30
2019-05-12T13:46:34.364Z,19.93
2019-05-12T13:49:06.369Z,8.00
2019-05-12T13:51:37.797Z,5.87
2019-05-12T13:54:08.960Z,2.87
2019-05-12T13:56:40.198Z,2.83
2019-05-12T13:59:12.085Z,1.93
2019-05-12T14:01:45.769Z,3.50
2019-05-12T14:04:17.274Z,1.80
2019-05-12T14:06:48.578Z,2.70
2019-05-12T14:09:20.322Z,13.43
2019-05-12T14:11:53.864Z,13.20
2019-05-12T14:14:24.779Z,13.43
2019-05-12T14:16:59.320Z,4.43
2019-05-12T14:19:30.419Z,2.40
2019-05-12T14:22:03.607Z,3.57
2019-05-12T14:24:41.923Z,3.23
2019-05-12T14:27:09.098Z,3.03
2019-05-12T14:29:40.941Z,4.07
2019-05-12T14:32:17.355Z,3.43
2019-05-12T14:34:45.484Z,6.67
2019-05-12T14:37:17.617Z,5.40
2019-05-12T14:39:50.426Z,3.80
2019-05-12T14:42:26.020Z,6.67
2019-05-12T14:44:55.159Z,3.33
2019-05-12T14:47:30.062Z,4.17
2019-05-12T14:50:00.946Z,3.57
2019-05-12T14:52:33.320Z,22.43
2019-05-12T14:55:05.217Z,5.77
2019-05-12T14:57:39.243Z,4.50
2019-05-12T15:00:16.132Z,8.47
2019-05-12T15:02:44.405Z,5.27
2019-05-12T15:05:15.924Z,5.13
2019-05-12T15:07:54.350Z,6.37
2019-05-12T15:10:23.348Z,4.77
2019-05-12T15:12:54.387Z,10.10
2019-05-12T15:15:25.820Z,10.00
2019-05-12T15:18:03.120Z,5.60
2019-05-12T15:20:33.033Z,9.17
2019-05-12T15:23:04.641Z,7.87
2019-05-12T15:25:37.226Z,6.07
2019-05-12T15:28:08.656Z,11.50
2019-05-12T15:30:39.921Z,7.60
2019-05-12T15:33:13.712Z,8.83
2019-05-12T15:35:44.363Z,7.63
2019-05-12T15:38:16.913Z,5.00
2019-05-12T15:40:48.408Z,5.50
2019-05-12T15:43:19.769Z,8.53
2019-05-12T15:45:55.392Z,8.53
2019-05-12T15:48:26.173Z,6.50
2019-05-12T15:50:59.311Z,8.57
2019-05-12T15:53:33.412Z,7.73
2019-05-12T15:56:14.218Z,10.83
2019-05-12T15:58:40.236Z,8.50
2019-05-12T16:01:16.587Z,9.77
2019-05-12T16:03:44.961Z,10.17
2019-05-12T16:06:17.219Z,11.03
2019-05-12T16:08:48.610Z,8.73
2019-05-12T16:11:20.548Z,9.50
2019-05-12T16:13:57.331Z,9.23
2019-05-12T16:16:25.281Z,10.83
2019-05-12T16:18:56.541Z,9.83
2019-05-12T16:21:27.997Z,8.87
2019-05-12T16:24:03.047Z,11.37
2019-05-12T16:26:33.515Z,11.00
2019-05-12T16:29:07.274Z,14.10
2019-05-12T16:31:39.375Z,13.93
2019-05-12T16:34:13.922Z,10.50
2019-05-12T16:36:47.516Z,13.93
2019-05-12T16:39:18.632Z,12.63
2019-05-12T16:41:49.953Z,10.50
2019-05-12T16:44:23.719Z,10.07
2019-05-12T16:46:54.731Z,12.73
2019-05-12T16:49:33.132Z,10.93
2019-05-12T16:51:59.764Z,9.37
2019-05-12T16:54:33.439Z,11.67
2019-05-12T16:57:06.424Z,11.67
2019-05-12T16:59:38.557Z,14.93
2019-05-12T17:02:10.180Z,12.50
2019-05-12T17:04:41.541Z,11.10
2019-05-12T17:07:17.047Z,10.37
2019-05-12T17:09:46.540Z,13.37
2019-05-12T17:12:18.010Z,12.00
2019-05-12T17:14:50.240Z,12.07
2019-05-12T17:17:21.790Z,11.53
2019-05-12T17:19:54.035Z,11.50
2019-05-12T17:22:45.794Z,11.50
2019-05-12T17:25:15.364Z,13.07
2019-05-12T17:27:46.333Z,9.47
2019-05-12T17:30:17.665Z,9.97
2019-05-12T17:32:57.991Z,16.37
2019-05-12T17:35:29.367Z,9.33
2019-05-12T17:37:57.344Z,9.67
2019-05-12T17:40:28.902Z,14.77
2019-05-12T17:43:09.259Z,13.80
2019-05-12T17:45:33.991Z,12.77
2019-05-12T17:48:07.676Z,12.50
2019-05-12T17:50:40.566Z,13.80
2019-05-12T17:53:13.823Z,9.87
2019-05-12T17:55:50.820Z,11.03
2019-05-12T17:58:18.693Z,13.90
2019-05-12T18:00:51.838Z,12.93
2019-05-12T18:03:25.638Z,13.37
2019-05-12T18:05:57.238Z,13.13
2019-05-12T18:08:32.477Z,15.17
2019-05-12T18:11:03.663Z,10.57
2019-05-12T18:13:34.972Z,10.10
2019-05-12T18:16:11.302Z,9.30
2019-05-12T18:18:40.578Z,12.00
2019-05-12T18:21:20.809Z,9.10
2019-05-12T18:23:45.613Z,9.27
2019-05-12T18:26:17.008Z,12.03
2019-05-12T18:28:48.589Z,10.30
2019-05-12T18:31:19.869Z,9.07
2019-05-12T18:33:54.463Z,8.20
2019-05-12T18:36:24.648Z,10.33
2019-05-12T18:39:09.255Z,10.90
2019-05-12T18:41:33.744Z,11.20
2019-05-12T18:44:04.747Z,10.43
2019-05-12T18:46:44.903Z,12.37
2019-05-12T18:49:12.355Z,12.17
2019-05-12T18:51:49.071Z,13.07
2019-05-12T18:54:16.081Z,12.07
2019-05-12T18:56:52.429Z,9.93
2019-05-12T18:59:20.603Z,11.70
2019-05-12T19:01:53.972Z,13.57
2019-05-12T19:04:25.390Z,9.40
2019-05-12T19:06:56.874Z,9.60
2019-05-12T19:09:28.046Z,13.37
2019-05-12T19:11:59.558Z,16.10
2019-05-12T19:14:37.098Z,15.43
2019-05-12T19:17:04.390Z,11.67
2019-05-12T19:19:35.995Z,14.13
2019-05-12T19:22:09.753Z,10.73
2019-05-12T19:24:40.700Z,9.70
2019-05-12T19:27:16.663Z,9.40
2019-05-12T19:29:49.085Z,10.43
2019-05-12T19:32:19.183Z,8.53
2019-05-12T19:34:50.436Z,7.10
2019-05-12T19:37:26.400Z,11.73
2019-05-12T19:39:55.273Z,10.60
2019-05-12T19:42:26.796Z,8.73
2019-05-12T19:45:00.022Z,11.30
2019-05-12T19:47:36.282Z,5.97
2019-05-12T19:50:09.580Z,6.17
2019-05-12T19:52:38.567Z,7.47
2019-05-12T19:55:10.169Z,8.03
2019-05-12T19:57:43.824Z,7.03
2019-05-12T20:00:14.957Z,11.43
2019-05-12T20:02:46.295Z,7.87
2019-05-12T20:05:17.807Z,7.90
2019-05-12T20:07:49.136Z,7.53
2019-05-12T20:10:20.807Z,7.67
2019-05-12T20:12:54.718Z,7.17
2019-05-12T20:15:30.249Z,6.60
2019-05-12T20:17:58.674Z,4.10
2019-05-12T20:20:36.540Z,9.17
2019-05-12T20:23:03.787Z,8.43
2019-05-12T20:25:35.105Z,6.47
2019-05-12T20:28:11.281Z,6.50
2019-05-12T20:30:40.465Z,5.67
2019-05-12T20:33:13.717Z,5.93
2019-05-12T20:35:49.236Z,5.63
2019-05-12T20:38:18.903Z,8.50
2019-05-12T20:40:50.873Z,6.33
2019-05-12T20:43:23.991Z,5.80
2019-05-12T20:45:56.465Z,4.70
2019-05-12T20:48:31.121Z,8.93
2019-05-12T20:51:03.592Z,5.40
2019-05-12T20:53:36.646Z,4.83
2019-05-12T20:56:12.255Z,6.97
2019-05-12T20:58:44.266Z,5.40
2019-05-12T21:01:20.040Z,4.93
2019-05-12T21:03:50.949Z,4.67
2019-05-12T21:06:23.689Z,8.27
2019-05-12T21:08:56.611Z,4.90
2019-05-12T21:11:28.439Z,5.73
2019-05-12T21:14:01.059Z,7.90
2019-05-12T21:16:38.014Z,6.30
2019-05-12T21:19:10.764Z,5.43
2019-05-12T21:21:39.635Z,5.10
2019-05-12T21:24:13.730Z,5.77
2019-05-12T21:26:44.416Z,4.90
2019-05-12T21:29:19.004Z,7.80
2019-05-12T21:31:49.284Z,5.20
2019-05-12T21:34:22.479Z,3.90
2019-05-12T21:36:59.030Z,4.90
2019-05-12T21:39:27.454Z,3.23
2019-05-12T21:41:59.122Z,5.27
2019-05-12T21:44:30.978Z,4.50
2019-05-12T21:47:09.990Z,4.70
2019-05-12T21:49:35.836Z,5.03
2019-05-12T21:52:07.311Z,5.07
2019-05-12T21:54:39.672Z,4.23
2019-05-12T21:57:11.417Z,4.13
2019-05-12T21:59:42.646Z,6.77
2019-05-12T22:02:14.723Z,5.57
2019-05-12T22:04:46.281Z,5.00
2019-05-12T22:07:17.877Z,4.73
2019-05-12T22:09:49.568Z,3.50
2019-05-12T22:12:23.322Z,5.23
2019-05-12T22:14:54.570Z,5.97
2019-05-12T22:17:27.797Z,5.03
2019-05-12T22:19:59.100Z,3.63
2019-05-12T22:22:33.205Z,6.83
2019-05-12T22:25:09.726Z,5.93
2019-05-12T22:27:38.294Z,5.77
2019-05-12T22:30:09.636Z,4.07
2019-05-12T22:32:41.105Z,3.00
2019-05-12T22:35:21.666Z,2.90
2019-05-12T22:37:46.084Z,4.20
2019-05-12T22:40:19.266Z,3.83
2019-05-12T22:42:56.208Z,3.43
2019-05-12T22:45:24.091Z,5.03
2019-05-12T22:47:59.108Z,7.33
2019-05-12T22:50:33.305Z,2.70
2019-05-12T22:53:04.112Z,3.30
2019-05-12T22:55:36.073Z,4.07
2019-05-12T22:58:10.861Z,2.40
2019-05-12T23:00:41.480Z,3.53
2019-05-12T23:03:14.994Z,4.20
2019-05-12T23:05:50.636Z,3.00
2019-05-12T23:08:19.989Z,3.37
2019-05-12T23:10:53.395Z,3.07
2019-05-12T23:13:24.844Z,6.30
2019-05-12T23:15:56.225Z,4.03
2019-05-12T23:18:30.739Z,2.70
2019-05-12T23:21:06.417Z,3.20
2019-05-12T23:23:35.197Z,4.57
2019-05-12T23:26:06.514Z,5.37
2019-05-12T23:28:40.603Z,3.43
2019-05-12T23:31:13.349Z,2.97
2019-05-12T23:33:44.902Z,3.50
2019-05-12T23:36:19.610Z,3.53
2019-05-12T23:38:54.467Z,4.50
2019-05-12T23:41:23.806Z,3.70
2019-05-12T23:43:55.611Z,2.80
2019-05-12T23:46:27.241Z,4.50
2019-05-12T23:48:58.698Z,4.47
2019-05-12T23:51:29.978Z,3.13
2019-05-12T23:54:03.611Z,3.23
2019-05-12T23:56:34.931Z,3.33
2019-05-12T23:59:06.259Z,2.37
